Time,TemperatureF,DewpointF,PressureIn,WindDirection,WindDirectionDegrees,WindSpeedMPH,WindSpeedGustMPH,Humidity,HourlyPrecipIn,Conditions,Clouds,dailyrainin,SoftwareType,DateUTC
2013-08-15 10:22:00,69.0,51.0,30.16,NNW,335,2.0,3.0,53,0.00,,,0.00,,2013-08-15 14:22:00,
2013-08-15 10:56:00,70.0,50.0,30.16,North,5,3.0,3.0,50,0.00,,,0.00,,2013-08-15 14:56:00,
2013-08-15 11:23:00,73.0,53.0,30.16,NNW,340,2.0,3.0,49,0.00,,,0.00,,2013-08-15 15:23:00,
2013-08-15 11:54:00,73.0,52.0,30.16,NNW,330,1.0,5.0,47,0.00,,,0.00,,2013-08-15 15:54:00,
2013-08-15 12:26:00,75.0,51.0,30.16,East,100,2.0,8.0,43,0.00,,,0.00,,2013-08-15 16:26:00,
2013-08-15 12:55:00,75.0,53.0,30.16,WNW,290,3.0,3.0,47,0.00,,,0.00,,2013-08-15 16:55:00,
2013-08-15 13:31:00,77.0,-99.9,30.16,NW,305,1.0,3.0,44,0.00,,,0.00,,2013-08-15 17:31:00,
2013-08-15 13:38:00,77.0,53.0,30.16,NW,305,1.0,3.0,44,0.00,,,0.00,,2013-08-15 17:38:00,
2013-08-15 13:55:00,77.0,53.0,30.16,NW,305,1.0,3.0,44,0.00,,,0.00,,2013-08-15 17:55:00,
2013-08-15 14:00:00,-999.0,-99.9,30.16,NNW,330,5.0,10.0,-999,-99.99,,,-99.99,,2013-08-15 18:00:00,
2013-08-15 14:28:00,76.0,52.0,30.13,NW,305,3.0,3.0,44,0.00,,,0.00,,2013-08-15 18:28:00,
2013-08-15 14:36:00,-999.0,-99.9,30.13,NW,310,6.0,8.0,-999,0.00,,,0.00,,2013-08-15 18:36:00,
2013-08-15 15:07:00,-999.0,-99.9,30.13,WSW,245,3.0,5.0,-999,0.00,,,0.00,,2013-08-15 19:07:00,
2013-08-15 15:34:00,-999.0,-99.9,30.13,NW,315,2.0,8.0,-999,-99.99,,,-99.99,,2013-08-15 19:34:00,
2013-08-15 15:39:00,76.0,52.0,30.13,NW,315,2.0,8.0,44,0.00,,,0.00,,2013-08-15 19:39:00,
2013-08-15 16:13:00,77.0,54.0,30.13,WSW,245,2.0,6.0,45,0.00,,,0.00,,2013-08-15 20:13:00,
2013-08-15 16:33:00,76.0,52.0,30.10,WNW,285,2.0,6.0,44,0.00,,,0.00,,2013-08-15 20:33:00,
2013-08-15 17:05:00,76.0,52.0,30.10,WNW,300,6.0,7.0,44,0.00,,,0.00,,2013-08-15 21:05:00,
2013-08-15 17:40:00,76.0,52.0,30.10,West,275,5.0,9.0,44,0.01,,,0.01,,2013-08-15 21:40:00,
2013-08-15 17:57:00,76.0,52.0,30.10,NNW,345,3.0,9.0,44,0.01,,,0.01,,2013-08-15 21:57:00,
2013-08-15 18:17:00,75.0,50.0,30.10,WNW,285,2.0,5.0,42,0.01,,,0.01,,2013-08-15 22:17:00,
2013-08-15 18:29:00,75.0,50.0,30.10,WNW,285,2.0,5.0,42,0.01,,,0.01,,2013-08-15 22:29:00,
2013-08-15 18:58:00,74.0,52.0,30.13,SW,230,0.0,0.0,47,0.00,,,0.01,,2013-08-15 22:58:00,
2013-08-15 19:35:00,-999.0,-99.9,30.10,WSW,240,0.0,0.0,52,0.00,,,0.01,,2013-08-15 23:35:00,
2013-08-15 19:55:00,69.0,53.0,30.10,WSW,245,0.0,0.0,57,0.00,,,0.01,,2013-08-15 23:55:00,
2013-08-15 20:24:00,66.0,52.0,30.13,WSW,240,0.0,0.0,60,0.00,,,0.01,,2013-08-16 00:24:00,
2013-08-15 20:46:00,66.0,52.0,30.13,WSW,245,0.0,0.0,61,0.00,,,0.01,,2013-08-16 00:46:00,
2013-08-15 20:52:00,65.0,52.0,30.13,WSW,245,0.0,0.0,62,0.00,,,0.01,,2013-08-16 00:52:00,
2013-08-15 21:26:00,63.0,52.0,30.13,WSW,245,0.0,0.0,67,0.00,,,0.01,,2013-08-16 01:26:00,
2013-08-15 21:43:00,-999.0,-99.9,30.13,WSW,245,0.0,-999.0,-999,-99.99,,,-99.99,,2013-08-16 01:43:00,
2013-08-15 21:54:00,62.0,53.0,30.16,WSW,245,0.0,0.0,73,0.00,,,0.01,,2013-08-16 01:54:00,
2013-08-15 22:21:00,61.0,53.0,30.16,WSW,245,0.0,0.0,76,0.00,,,0.01,,2013-08-16 02:21:00,
2013-08-15 22:43:00,61.0,54.0,30.16,WSW,245,0.0,0.0,77,0.00,,,0.01,,2013-08-16 02:43:00,
2013-08-15 22:52:00,60.0,54.0,30.16,WSW,245,0.0,0.0,80,0.00,,,0.01,,2013-08-16 02:52:00,
2013-08-15 23:22:00,60.0,55.0,30.16,WSW,245,0.0,0.0,83,0.00,,,0.01,,2013-08-16 03:22:00,
2013-08-15 23:53:00,59.0,54.0,30.16,WSW,245,0.0,0.0,85,0.00,,,0.01,,2013-08-16 03:53:00,